sensor_id;sensor_type;location;lat;lon;timestamp;pressure;altitude;pressure_sealevel;temperature;humidity
73024;BME280;72676;47.526;8.538;2023-11-19T00:01:25;96762.19;;;7.87;84.16
73024;BME280;72676;47.526;8.538;2023-11-19T00:03:51;96746.53;;;7.87;83.86
73024;BME280;72676;47.526;8.538;2023-11-19T00:06:18;96750.09;;;7.86;84.31
73024;BME280;72676;47.526;8.538;2023-11-19T00:08:44;96747.97;;;7.91;83.62
73024;BME280;72676;47.526;8.538;2023-11-19T00:11:10;96739.22;;;7.92;83.34
73024;BME280;72676;47.526;8.538;2023-11-19T00:13:37;96724.41;;;7.92;82.76
73024;BME280;72676;47.526;8.538;2023-11-19T00:16:04;96728.56;;;7.95;82.66
73024;BME280;72676;47.526;8.538;2023-11-19T00:18:30;96709.25;;;7.97;82.23
73024;BME280;72676;47.526;8.538;2023-11-19T00:20:57;96709.41;;;8.07;82.18
73024;BME280;72676;47.526;8.538;2023-11-19T00:23:23;96699.25;;;8.15;81.87
73024;BME280;72676;47.526;8.538;2023-11-19T00:25:50;96688.69;;;8.16;81.72
73024;BME280;72676;47.526;8.538;2023-11-19T00:28:16;96703.13;;;8.22;81.60
73024;BME280;72676;47.526;8.538;2023-11-19T00:30:43;96705.94;;;8.19;81.46
73024;BME280;72676;47.526;8.538;2023-11-19T00:33:09;96710.13;;;8.09;81.54
73024;BME280;72676;47.526;8.538;2023-11-19T00:35:36;96695.09;;;8.12;80.55
73024;BME280;72676;47.526;8.538;2023-11-19T00:38:02;96687.16;;;8.14;80.97
73024;BME280;72676;47.526;8.538;2023-11-19T00:40:30;96674.13;;;8.14;81.21
73024;BME280;72676;47.526;8.538;2023-11-19T00:42:56;96667.63;;;8.19;81.08
73024;BME280;72676;47.526;8.538;2023-11-19T00:45:26;96662.22;;;8.44;80.64
73024;BME280;72676;47.526;8.538;2023-11-19T00:47:53;96661.41;;;8.55;79.50
73024;BME280;72676;47.526;8.538;2023-11-19T00:50:19;96656.19;;;8.55;79.31
73024;BME280;72676;47.526;8.538;2023-11-19T00:52:46;96652.53;;;8.68;79.16
73024;BME280;72676;47.526;8.538;2023-11-19T00:55:13;96646.97;;;8.83;78.44
73024;BME280;72676;47.526;8.538;2023-11-19T00:57:39;96647.56;;;8.98;77.76
73024;BME280;72676;47.526;8.538;2023-11-19T01:00:06;96658.22;;;8.62;79.07
73024;BME280;72676;47.526;8.538;2023-11-19T01:02:46;96660.47;;;8.66;79.47
73024;BME280;72676;47.526;8.538;2023-11-19T01:05:13;96655.41;;;8.87;78.57
73024;BME280;72676;47.526;8.538;2023-11-19T01:07:42;96653.84;;;8.84;79.05
73024;BME280;72676;47.526;8.538;2023-11-19T01:10:09;96644.69;;;8.57;79.96
73024;BME280;72676;47.526;8.538;2023-11-19T01:12:36;96658.47;;;8.70;80.01
73024;BME280;72676;47.526;8.538;2023-11-19T01:15:05;96656.69;;;8.70;79.80
73024;BME280;72676;47.526;8.538;2023-11-19T01:17:32;96652.78;;;8.65;80.02
73024;BME280;72676;47.526;8.538;2023-11-19T01:19:58;96644.94;;;8.65;79.97
73024;BME280;72676;47.526;8.538;2023-11-19T01:22:25;96656.81;;;8.58;80.11
73024;BME280;72676;47.526;8.538;2023-11-19T01:24:51;96644.25;;;8.63;80.11
73024;BME280;72676;47.526;8.538;2023-11-19T01:27:18;96633.81;;;8.74;79.55
73024;BME280;72676;47.526;8.538;2023-11-19T01:29:45;96648.34;;;8.44;79.57
73024;BME280;72676;47.526;8.538;2023-11-19T01:32:11;96642.69;;;8.61;79.82
73024;BME280;72676;47.526;8.538;2023-11-19T01:34:38;96645.75;;;8.65;78.98
73024;BME280;72676;47.526;8.538;2023-11-19T01:37:05;96660.03;;;8.72;78.09
73024;BME280;72676;47.526;8.538;2023-11-19T01:39:31;96649.22;;;8.66;77.33
73024;BME280;72676;47.526;8.538;2023-11-19T01:41:58;96634.88;;;8.71;77.11
73024;BME280;72676;47.526;8.538;2023-11-19T01:44:25;96621.34;;;8.77;76.86
73024;BME280;72676;47.526;8.538;2023-11-19T01:46:52;96614.56;;;8.86;76.63
73024;BME280;72676;47.526;8.538;2023-11-19T01:49:19;96609.81;;;8.80;76.52
73024;BME280;72676;47.526;8.538;2023-11-19T01:51:47;96621.78;;;8.93;76.48
73024;BME280;72676;47.526;8.538;2023-11-19T01:54:14;96611.81;;;8.98;76.58
73024;BME280;72676;47.526;8.538;2023-11-19T01:56:41;96615.25;;;8.99;76.37
73024;BME280;72676;47.526;8.538;2023-11-19T01:59:09;96614.09;;;8.92;76.88
73024;BME280;72676;47.526;8.538;2023-11-19T02:01:37;96608.28;;;8.88;77.21
73024;BME280;72676;47.526;8.538;2023-11-19T02:04:07;96604.91;;;9.08;76.72
73024;BME280;72676;47.526;8.538;2023-11-19T02:06:37;96601.56;;;9.28;75.73
73024;BME280;72676;47.526;8.538;2023-11-19T02:09:06;96590.34;;;9.37;75.00
73024;BME280;72676;47.526;8.538;2023-11-19T02:11:34;96573.44;;;9.52;75.15
73024;BME280;72676;47.526;8.538;2023-11-19T02:14:01;96572.38;;;9.55;74.90
73024;BME280;72676;47.526;8.538;2023-11-19T02:16:29;96575.53;;;9.69;74.65
73024;BME280;72676;47.526;8.538;2023-11-19T02:18:56;96585.22;;;9.78;74.41
73024;BME280;72676;47.526;8.538;2023-11-19T02:21:22;96583.22;;;9.71;74.37
73024;BME280;72676;47.526;8.538;2023-11-19T02:23:49;96582.91;;;9.64;74.79
73024;BME280;72676;47.526;8.538;2023-11-19T02:29:23;96578.72;;;9.41;75.68
73024;BME280;72676;47.526;8.538;2023-11-19T02:31:50;96583.69;;;9.44;75.40
73024;BME280;72676;47.526;8.538;2023-11-19T02:34:16;96584.09;;;9.29;75.61
73024;BME280;72676;47.526;8.538;2023-11-19T02:36:43;96591.81;;;9.30;75.94
73024;BME280;72676;47.526;8.538;2023-11-19T02:39:09;96596.31;;;9.28;75.73
73024;BME280;72676;47.526;8.538;2023-11-19T02:41:38;96600.97;;;9.25;75.97
73024;BME280;72676;47.526;8.538;2023-11-19T02:44:06;96591.34;;;9.25;76.26
73024;BME280;72676;47.526;8.538;2023-11-19T02:46:33;96616.78;;;9.23;76.39
73024;BME280;72676;47.526;8.538;2023-11-19T02:48:59;96615.47;;;9.29;76.84
73024;BME280;72676;47.526;8.538;2023-11-19T02:51:26;96597.94;;;9.51;76.86
73024;BME280;72676;47.526;8.538;2023-11-19T02:53:54;96591.88;;;9.51;77.91
73024;BME280;72676;47.526;8.538;2023-11-19T02:56:20;96587.91;;;9.36;79.72
73024;BME280;72676;47.526;8.538;2023-11-19T02:58:52;96589.22;;;9.19;81.68
73024;BME280;72676;47.526;8.538;2023-11-19T03:01:25;96586.38;;;9.22;81.70
73024;BME280;72676;47.526;8.538;2023-11-19T03:04:00;96585.69;;;9.09;82.16
73024;BME280;72676;47.526;8.538;2023-11-19T03:06:29;96590.44;;;9.04;82.92
73024;BME280;72676;47.526;8.538;2023-11-19T03:08:56;96582.16;;;8.88;83.69
73024;BME280;72676;47.526;8.538;2023-11-19T03:11:22;96589.72;;;9.02;83.55
73024;BME280;72676;47.526;8.538;2023-11-19T03:13:49;96581.28;;;8.99;83.96
73024;BME280;72676;47.526;8.538;2023-11-19T03:16:15;96566.72;;;8.96;84.26
73024;BME280;72676;47.526;8.538;2023-11-19T03:18:43;96574.03;;;9.02;84.66
73024;BME280;72676;47.526;8.538;2023-11-19T03:21:09;96572.88;;;8.95;85.32
73024;BME280;72676;47.526;8.538;2023-11-19T03:23:36;96577.66;;;8.79;85.98
73024;BME280;72676;47.526;8.538;2023-11-19T03:26:03;96574.09;;;8.80;86.72
73024;BME280;72676;47.526;8.538;2023-11-19T03:28:31;96581.78;;;8.71;87.42
73024;BME280;72676;47.526;8.538;2023-11-19T03:30:58;96576.94;;;8.66;88.30
73024;BME280;72676;47.526;8.538;2023-11-19T03:33:25;96569.47;;;8.73;88.41
73024;BME280;72676;47.526;8.538;2023-11-19T03:35:54;96569.94;;;8.78;88.37
73024;BME280;72676;47.526;8.538;2023-11-19T03:38:23;96587.16;;;8.80;88.34
73024;BME280;72676;47.526;8.538;2023-11-19T03:40:50;96575.84;;;8.80;88.59
73024;BME280;72676;47.526;8.538;2023-11-19T03:43:17;96571.47;;;8.80;88.62
73024;BME280;72676;47.526;8.538;2023-11-19T03:45:45;96576.69;;;8.91;88.64
73024;BME280;72676;47.526;8.538;2023-11-19T03:48:13;96572.38;;;9.01;88.16
73024;BME280;72676;47.526;8.538;2023-11-19T03:50:42;96580.44;;;9.09;87.64
73024;BME280;72676;47.526;8.538;2023-11-19T03:53:08;96581.38;;;9.19;87.67
73024;BME280;72676;47.526;8.538;2023-11-19T03:55:35;96576.47;;;9.26;87.11
73024;BME280;72676;47.526;8.538;2023-11-19T03:58:01;96583.84;;;9.32;87.07
73024;BME280;72676;47.526;8.538;2023-11-19T04:00:28;96585.28;;;9.36;87.01
73024;BME280;72676;47.526;8.538;2023-11-19T04:02:54;96580.81;;;9.58;86.27
73024;BME280;72676;47.526;8.538;2023-11-19T04:05:21;96583.81;;;9.74;85.67
73024;BME280;72676;47.526;8.538;2023-11-19T04:07:47;96594.97;;;9.76;85.62
73024;BME280;72676;47.526;8.538;2023-11-19T04:10:14;96595.44;;;9.50;87.83
73024;BME280;72676;47.526;8.538;2023-11-19T04:12:42;96592.56;;;9.53;88.24
73024;BME280;72676;47.526;8.538;2023-11-19T04:15:11;96601.00;;;9.56;88.23
73024;BME280;72676;47.526;8.538;2023-11-19T04:17:37;96608.13;;;9.54;88.74
73024;BME280;72676;47.526;8.538;2023-11-19T04:20:05;96611.72;;;9.53;88.79
73024;BME280;72676;47.526;8.538;2023-11-19T04:22:32;96615.63;;;9.59;88.79
73024;BME280;72676;47.526;8.538;2023-11-19T04:24:58;96608.84;;;9.56;88.79
73024;BME280;72676;47.526;8.538;2023-11-19T04:27:25;96606.22;;;9.56;89.00
73024;BME280;72676;47.526;8.538;2023-11-19T04:29:51;96607.88;;;9.57;89.59
73024;BME280;72676;47.526;8.538;2023-11-19T04:32:18;96607.06;;;9.57;89.90
73024;BME280;72676;47.526;8.538;2023-11-19T04:34:45;96591.63;;;9.54;90.04
73024;BME280;72676;47.526;8.538;2023-11-19T04:37:11;96599.28;;;9.66;89.92
73024;BME280;72676;47.526;8.538;2023-11-19T04:39:39;96597.91;;;9.62;89.97
73024;BME280;72676;47.526;8.538;2023-11-19T04:42:06;96592.44;;;9.54;90.96
73024;BME280;72676;47.526;8.538;2023-11-19T04:44:33;96606.59;;;9.52;91.29
73024;BME280;72676;47.526;8.538;2023-11-19T04:46:59;96608.97;;;9.55;91.35
73024;BME280;72676;47.526;8.538;2023-11-19T04:49:26;96604.59;;;9.44;91.54
73024;BME280;72676;47.526;8.538;2023-11-19T04:51:53;96599.84;;;9.49;92.04
73024;BME280;72676;47.526;8.538;2023-11-19T04:54:20;96615.53;;;9.49;92.50
73024;BME280;72676;47.526;8.538;2023-11-19T04:56:46;96602.69;;;9.46;93.15
73024;BME280;72676;47.526;8.538;2023-11-19T04:59:13;96601.50;;;9.50;93.60
73024;BME280;72676;47.526;8.538;2023-11-19T05:01:40;96600.28;;;9.54;93.74
73024;BME280;72676;47.526;8.538;2023-11-19T05:04:07;96601.84;;;9.57;93.78
73024;BME280;72676;47.526;8.538;2023-11-19T05:06:34;96599.84;;;9.49;94.60
73024;BME280;72676;47.526;8.538;2023-11-19T05:09:01;96607.88;;;9.57;94.41
73024;BME280;72676;47.526;8.538;2023-11-19T05:11:32;96604.78;;;9.63;94.48
73024;BME280;72676;47.526;8.538;2023-11-19T05:14:02;96605.25;;;9.89;93.62
73024;BME280;72676;47.526;8.538;2023-11-19T05:16:30;96608.03;;;9.87;93.15
73024;BME280;72676;47.526;8.538;2023-11-19T05:18:57;96610.13;;;9.93;92.64
73024;BME280;72676;47.526;8.538;2023-11-19T05:21:23;96612.00;;;10.02;92.78
73024;BME280;72676;47.526;8.538;2023-11-19T05:23:50;96608.72;;;9.89;92.68
73024;BME280;72676;47.526;8.538;2023-11-19T05:26:18;96606.31;;;9.97;92.78
73024;BME280;72676;47.526;8.538;2023-11-19T05:28:45;96602.72;;;9.98;92.49
73024;BME280;72676;47.526;8.538;2023-11-19T05:31:11;96603.16;;;10.14;92.09
73024;BME280;72676;47.526;8.538;2023-11-19T05:33:38;96609.97;;;10.06;91.59
73024;BME280;72676;47.526;8.538;2023-11-19T05:36:05;96599.78;;;10.03;91.94
73024;BME280;72676;47.526;8.538;2023-11-19T05:38:32;96597.38;;;10.00;91.94
73024;BME280;72676;47.526;8.538;2023-11-19T05:40:58;96583.00;;;10.05;92.07
73024;BME280;72676;47.526;8.538;2023-11-19T05:43:24;96588.81;;;10.09;91.78
73024;BME280;72676;47.526;8.538;2023-11-19T05:45:51;96581.06;;;10.07;91.77
73024;BME280;72676;47.526;8.538;2023-11-19T05:48:17;96585.59;;;9.94;92.36
73024;BME280;72676;47.526;8.538;2023-11-19T05:50:44;96598.69;;;9.94;92.69
73024;BME280;72676;47.526;8.538;2023-11-19T05:53:10;96584.47;;;9.87;93.26
73024;BME280;72676;47.526;8.538;2023-11-19T05:55:39;96592.31;;;9.87;93.26
73024;BME280;72676;47.526;8.538;2023-11-19T05:58:31;96588.28;;;9.83;93.59
73024;BME280;72676;47.526;8.538;2023-11-19T06:00:59;96583.91;;;9.84;93.71
73024;BME280;72676;47.526;8.538;2023-11-19T06:03:27;96582.81;;;9.86;94.16
73024;BME280;72676;47.526;8.538;2023-11-19T06:05:54;96587.78;;;9.89;94.07
73024;BME280;72676;47.526;8.538;2023-11-19T06:08:20;96581.53;;;10.01;93.96
73024;BME280;72676;47.526;8.538;2023-11-19T06:10:47;96581.19;;;10.06;93.58
73024;BME280;72676;47.526;8.538;2023-11-19T06:13:16;96584.38;;;10.09;93.83
73024;BME280;72676;47.526;8.538;2023-11-19T06:15:42;96581.69;;;10.20;93.35
73024;BME280;72676;47.526;8.538;2023-11-19T06:18:09;96591.41;;;10.29;93.23
73024;BME280;72676;47.526;8.538;2023-11-19T06:20:37;96594.72;;;10.31;92.94
73024;BME280;72676;47.526;8.538;2023-11-19T06:23:07;96593.63;;;10.34;92.92
73024;BME280;72676;47.526;8.538;2023-11-19T06:25:33;96603.28;;;10.33;93.24
73024;BME280;72676;47.526;8.538;2023-11-19T06:28:01;96597.50;;;10.39;93.30
73024;BME280;72676;47.526;8.538;2023-11-19T06:30:28;96590.53;;;10.49;93.03
73024;BME280;72676;47.526;8.538;2023-11-19T06:32:56;96592.66;;;10.55;92.84
73024;BME280;72676;47.526;8.538;2023-11-19T06:35:22;96578.34;;;10.59;92.57
73024;BME280;72676;47.526;8.538;2023-11-19T06:37:49;96595.06;;;10.68;92.29
73024;BME280;72676;47.526;8.538;2023-11-19T06:40:15;96593.00;;;10.71;92.50
73024;BME280;72676;47.526;8.538;2023-11-19T06:42:42;96586.94;;;10.71;92.70
73024;BME280;72676;47.526;8.538;2023-11-19T06:45:09;96581.56;;;10.72;92.69
73024;BME280;72676;47.526;8.538;2023-11-19T06:47:35;96583.66;;;10.78;92.64
73024;BME280;72676;47.526;8.538;2023-11-19T06:50:02;96580.78;;;10.81;92.79
73024;BME280;72676;47.526;8.538;2023-11-19T06:52:31;96587.56;;;10.93;92.20
73024;BME280;72676;47.526;8.538;2023-11-19T06:54:58;96586.78;;;11.02;91.74
73024;BME280;72676;47.526;8.538;2023-11-19T06:57:27;96586.25;;;11.08;91.47
73024;BME280;72676;47.526;8.538;2023-11-19T06:59:56;96588.06;;;11.17;90.87
73024;BME280;72676;47.526;8.538;2023-11-19T07:02:22;96578.88;;;11.32;90.02
73024;BME280;72676;47.526;8.538;2023-11-19T07:04:52;96582.56;;;11.20;90.70
73024;BME280;72676;47.526;8.538;2023-11-19T07:07:19;96579.13;;;11.20;90.79
73024;BME280;72676;47.526;8.538;2023-11-19T07:09:46;96582.94;;;11.16;91.01
73024;BME280;72676;47.526;8.538;2023-11-19T07:12:12;96579.25;;;11.18;91.06
73024;BME280;72676;47.526;8.538;2023-11-19T07:14:40;96582.44;;;11.22;91.02
73024;BME280;72676;47.526;8.538;2023-11-19T07:17:08;96581.09;;;11.37;90.47
73024;BME280;72676;47.526;8.538;2023-11-19T07:19:37;96583.16;;;11.33;90.33
73024;BME280;72676;47.526;8.538;2023-11-19T07:22:05;96589.25;;;11.43;90.33
73024;BME280;72676;47.526;8.538;2023-11-19T07:24:33;96586.59;;;11.34;90.23
73024;BME280;72676;47.526;8.538;2023-11-19T07:26:59;96603.97;;;11.25;90.70
73024;BME280;72676;47.526;8.538;2023-11-19T07:29:26;96600.38;;;11.26;90.53
73024;BME280;72676;47.526;8.538;2023-11-19T07:31:55;96610.31;;;11.23;90.43
73024;BME280;72676;47.526;8.538;2023-11-19T07:34:24;96609.22;;;11.25;90.59
73024;BME280;72676;47.526;8.538;2023-11-19T07:36:51;96608.25;;;11.26;90.84
73024;BME280;72676;47.526;8.538;2023-11-19T07:39:18;96615.84;;;11.29;90.69
73024;BME280;72676;47.526;8.538;2023-11-19T07:41:44;96610.75;;;11.28;91.00
73024;BME280;72676;47.526;8.538;2023-11-19T07:44:11;96608.94;;;11.28;91.30
73024;BME280;72676;47.526;8.538;2023-11-19T07:46:37;96610.03;;;11.26;91.45
73024;BME280;72676;47.526;8.538;2023-11-19T07:49:04;96614.06;;;11.30;91.88
73024;BME280;72676;47.526;8.538;2023-11-19T07:51:30;96614.19;;;11.28;91.97
73024;BME280;72676;47.526;8.538;2023-11-19T07:53:57;96614.31;;;11.27;91.91
73024;BME280;72676;47.526;8.538;2023-11-19T07:56:24;96616.38;;;11.23;92.29
73024;BME280;72676;47.526;8.538;2023-11-19T07:58:50;96613.38;;;11.28;92.43
73024;BME280;72676;47.526;8.538;2023-11-19T08:01:18;96622.31;;;11.25;92.01
73024;BME280;72676;47.526;8.538;2023-11-19T08:03:44;96613.47;;;11.26;92.36
73024;BME280;72676;47.526;8.538;2023-11-19T08:06:13;96622.47;;;11.33;92.04
73024;BME280;72676;47.526;8.538;2023-11-19T08:08:40;96622.25;;;11.55;91.51
73024;BME280;72676;47.526;8.538;2023-11-19T08:11:06;96611.66;;;11.66;90.63
73024;BME280;72676;47.526;8.538;2023-11-19T08:13:33;96620.94;;;11.70;90.49
73024;BME280;72676;47.526;8.538;2023-11-19T08:16:00;96615.13;;;11.76;89.68
73024;BME280;72676;47.526;8.538;2023-11-19T08:18:26;96619.38;;;11.77;89.54
73024;BME280;72676;47.526;8.538;2023-11-19T08:20:53;96628.38;;;11.65;90.22
73024;BME280;72676;47.526;8.538;2023-11-19T08:23:20;96629.97;;;11.47;90.93
73024;BME280;72676;47.526;8.538;2023-11-19T08:25:47;96627.50;;;11.55;90.99
73024;BME280;72676;47.526;8.538;2023-11-19T08:28:13;96628.22;;;11.57;90.28
73024;BME280;72676;47.526;8.538;2023-11-19T08:30:39;96631.41;;;11.61;90.20
73024;BME280;72676;47.526;8.538;2023-11-19T08:33:06;96632.25;;;11.61;90.30
73024;BME280;72676;47.526;8.538;2023-11-19T08:35:33;96633.91;;;11.62;90.03
73024;BME280;72676;47.526;8.538;2023-11-19T08:37:59;96627.56;;;11.65;90.30
73024;BME280;72676;47.526;8.538;2023-11-19T08:40:27;96650.03;;;11.58;90.37
73024;BME280;72676;47.526;8.538;2023-11-19T08:42:53;96635.66;;;11.62;90.31
73024;BME280;72676;47.526;8.538;2023-11-19T08:45:20;96647.69;;;11.64;90.57
73024;BME280;72676;47.526;8.538;2023-11-19T08:47:46;96647.81;;;11.63;90.61
73024;BME280;72676;47.526;8.538;2023-11-19T08:50:13;96649.06;;;11.59;90.38
73024;BME280;72676;47.526;8.538;2023-11-19T08:52:39;96647.41;;;11.58;90.95
73024;BME280;72676;47.526;8.538;2023-11-19T08:55:06;96657.22;;;11.65;90.55
73024;BME280;72676;47.526;8.538;2023-11-19T08:57:32;96654.88;;;11.62;90.69
73024;BME280;72676;47.526;8.538;2023-11-19T08:59:59;96649.06;;;11.59;90.89
73024;BME280;72676;47.526;8.538;2023-11-19T09:02:26;96652.75;;;11.56;91.23
73024;BME280;72676;47.526;8.538;2023-11-19T09:04:52;96655.13;;;11.59;91.66
73024;BME280;72676;47.526;8.538;2023-11-19T09:07:20;96647.97;;;11.61;91.57
73024;BME280;72676;47.526;8.538;2023-11-19T09:09:47;96655.69;;;11.63;91.31
73024;BME280;72676;47.526;8.538;2023-11-19T09:12:13;96652.94;;;11.64;91.37
73024;BME280;72676;47.526;8.538;2023-11-19T09:14:40;96643.56;;;11.71;90.94
73024;BME280;72676;47.526;8.538;2023-11-19T09:17:08;96651.84;;;11.76;90.95
73024;BME280;72676;47.526;8.538;2023-11-19T09:19:35;96648.28;;;11.86;90.54
73024;BME280;72676;47.526;8.538;2023-11-19T09:22:02;96653.09;;;11.81;90.06
73024;BME280;72676;47.526;8.538;2023-11-19T09:24:29;96650.63;;;11.80;90.38
73024;BME280;72676;47.526;8.538;2023-11-19T09:26:55;96663.19;;;11.86;90.49
73024;BME280;72676;47.526;8.538;2023-11-19T09:29:22;96660.56;;;11.86;90.51
73024;BME280;72676;47.526;8.538;2023-11-19T09:31:50;96659.88;;;12.03;90.03
73024;BME280;72676;47.526;8.538;2023-11-19T09:34:16;96666.81;;;11.94;90.25
73024;BME280;72676;47.526;8.538;2023-11-19T09:36:43;96662.66;;;11.92;90.59
73024;BME280;72676;47.526;8.538;2023-11-19T09:39:11;96666.09;;;11.83;91.51
73024;BME280;72676;47.526;8.538;2023-11-19T09:41:39;96658.22;;;11.83;91.73
73024;BME280;72676;47.526;8.538;2023-11-19T09:44:05;96660.56;;;11.86;91.24
73024;BME280;72676;47.526;8.538;2023-11-19T09:46:33;96655.75;;;11.91;91.22
73024;BME280;72676;47.526;8.538;2023-11-19T09:49:00;96652.03;;;11.93;91.00
73024;BME280;72676;47.526;8.538;2023-11-19T09:51:29;96652.44;;;11.89;91.38
73024;BME280;72676;47.526;8.538;2023-11-19T09:53:55;96647.59;;;11.84;92.04
73024;BME280;72676;47.526;8.538;2023-11-19T09:56:22;96645.94;;;11.93;91.91
73024;BME280;72676;47.526;8.538;2023-11-19T09:58:49;96653.66;;;12.04;91.42
73024;BME280;72676;47.526;8.538;2023-11-19T10:01:15;96661.84;;;12.01;91.13
73024;BME280;72676;47.526;8.538;2023-11-19T10:03:55;96644.97;;;11.94;91.57
73024;BME280;72676;47.526;8.538;2023-11-19T10:06:22;96654.50;;;11.95;91.13
73024;BME280;72676;47.526;8.538;2023-11-19T10:08:51;96653.81;;;11.93;91.45
73024;BME280;72676;47.526;8.538;2023-11-19T10:11:17;96643.56;;;11.80;91.72
73024;BME280;72676;47.526;8.538;2023-11-19T10:13:43;96637.34;;;11.81;91.66
73024;BME280;72676;47.526;8.538;2023-11-19T10:16:14;96633.50;;;11.95;91.55
73024;BME280;72676;47.526;8.538;2023-11-19T10:18:48;96637.78;;;11.86;91.56
73024;BME280;72676;47.526;8.538;2023-11-19T10:21:17;96637.38;;;11.91;91.67
73024;BME280;72676;47.526;8.538;2023-11-19T10:23:48;96644.44;;;12.00;91.78
73024;BME280;72676;47.526;8.538;2023-11-19T10:26:16;96651.91;;;12.14;90.92
73024;BME280;72676;47.526;8.538;2023-11-19T10:28:42;96649.81;;;12.08;90.89
73024;BME280;72676;47.526;8.538;2023-11-19T10:31:13;96645.25;;;12.10;91.46
73024;BME280;72676;47.526;8.538;2023-11-19T10:33:40;96640.00;;;12.10;91.80
73024;BME280;72676;47.526;8.538;2023-11-19T10:36:07;96648.00;;;11.89;92.73
73024;BME280;72676;47.526;8.538;2023-11-19T10:38:33;96645.38;;;11.89;93.59
73024;BME280;72676;47.526;8.538;2023-11-19T10:41:00;96630.88;;;11.85;93.92
73024;BME280;72676;47.526;8.538;2023-11-19T10:43:26;96636.69;;;11.89;94.38
73024;BME280;72676;47.526;8.538;2023-11-19T10:45:54;96643.16;;;11.85;95.07
73024;BME280;72676;47.526;8.538;2023-11-19T10:48:34;96656.44;;;11.83;94.82
73024;BME280;72676;47.526;8.538;2023-11-19T10:51:05;96639.56;;;11.86;94.84
73024;BME280;72676;47.526;8.538;2023-11-19T10:53:38;96643.88;;;11.87;94.58
73024;BME280;72676;47.526;8.538;2023-11-19T10:56:10;96629.91;;;11.86;94.53
73024;BME280;72676;47.526;8.538;2023-11-19T10:58:37;96635.44;;;11.93;94.23
73024;BME280;72676;47.526;8.538;2023-11-19T11:01:19;96621.09;;;11.97;94.33
73024;BME280;72676;47.526;8.538;2023-11-19T11:03:51;96623.97;;;11.94;94.93
73024;BME280;72676;47.526;8.538;2023-11-19T11:06:19;96615.41;;;11.92;95.68
73024;BME280;72676;47.526;8.538;2023-11-19T11:08:48;96602.41;;;12.00;95.84
73024;BME280;72676;47.526;8.538;2023-11-19T11:11:15;96588.88;;;12.04;95.30
73024;BME280;72676;47.526;8.538;2023-11-19T11:13:47;96587.19;;;12.13;94.59
73024;BME280;72676;47.526;8.538;2023-11-19T11:16:14;96600.47;;;12.21;94.95
73024;BME280;72676;47.526;8.538;2023-11-19T11:18:41;96595.47;;;12.27;93.97
73024;BME280;72676;47.526;8.538;2023-11-19T11:21:13;96593.81;;;12.26;93.47
73024;BME280;72676;47.526;8.538;2023-11-19T11:24:05;96598.00;;;12.19;93.73
73024;BME280;72676;47.526;8.538;2023-11-19T11:32:25;96589.69;;;12.24;93.27
73024;BME280;72676;47.526;8.538;2023-11-19T11:35:27;96568.69;;;12.24;92.76
73024;BME280;72676;47.526;8.538;2023-11-19T11:38:06;96586.50;;;12.30;92.58
73024;BME280;72676;47.526;8.538;2023-11-19T11:40:34;96588.00;;;12.32;92.79
73024;BME280;72676;47.526;8.538;2023-11-19T11:43:00;96582.75;;;12.32;92.65
73024;BME280;72676;47.526;8.538;2023-11-19T11:45:37;96579.72;;;12.37;92.14
73024;BME280;72676;47.526;8.538;2023-11-19T11:48:08;96590.34;;;12.45;91.94
73024;BME280;72676;47.526;8.538;2023-11-19T11:50:35;96580.22;;;12.50;91.75
73024;BME280;72676;47.526;8.538;2023-11-19T11:53:13;96573.84;;;12.52;91.82
73024;BME280;72676;47.526;8.538;2023-11-19T11:58:18;96572.19;;;12.61;90.38
73024;BME280;72676;47.526;8.538;2023-11-19T12:00:46;96568.03;;;12.58;91.10
73024;BME280;72676;47.526;8.538;2023-11-19T12:03:13;96567.31;;;12.66;90.65
73024;BME280;72676;47.526;8.538;2023-11-19T12:05:47;96563.00;;;12.74;90.43
73024;BME280;72676;47.526;8.538;2023-11-19T12:08:15;96564.81;;;12.74;89.85
73024;BME280;72676;47.526;8.538;2023-11-19T12:10:45;96563.56;;;12.78;89.63
73024;BME280;72676;47.526;8.538;2023-11-19T12:13:14;96568.09;;;12.76;90.01
73024;BME280;72676;47.526;8.538;2023-11-19T12:18:26;96548.16;;;12.83;90.44
73024;BME280;72676;47.526;8.538;2023-11-19T12:20:54;96557.03;;;12.82;90.03
73024;BME280;72676;47.526;8.538;2023-11-19T12:23:21;96551.31;;;12.86;90.10
73024;BME280;72676;47.526;8.538;2023-11-19T12:25:48;96562.22;;;13.01;89.84
73024;BME280;72676;47.526;8.538;2023-11-19T12:28:15;96567.00;;;13.15;88.74
73024;BME280;72676;47.526;8.538;2023-11-19T12:30:45;96552.97;;;13.24;88.64
73024;BME280;72676;47.526;8.538;2023-11-19T12:33:15;96556.06;;;13.37;87.62
73024;BME280;72676;47.526;8.538;2023-11-19T12:35:44;96552.91;;;13.33;87.37
73024;BME280;72676;47.526;8.538;2023-11-19T12:38:20;96548.56;;;13.42;87.71
73024;BME280;72676;47.526;8.538;2023-11-19T12:40:47;96551.25;;;13.50;86.98
73024;BME280;72676;47.526;8.538;2023-11-19T12:43:22;96552.69;;;13.44;87.36
73024;BME280;72676;47.526;8.538;2023-11-19T12:45:49;96545.84;;;13.34;87.63
73024;BME280;72676;47.526;8.538;2023-11-19T12:48:15;96540.28;;;13.37;87.38
73024;BME280;72676;47.526;8.538;2023-11-19T12:50:52;96533.41;;;13.26;87.88
73024;BME280;72676;47.526;8.538;2023-11-19T12:53:22;96550.03;;;13.27;87.68
73024;BME280;72676;47.526;8.538;2023-11-19T12:55:49;96552.66;;;13.27;87.57
73024;BME280;72676;47.526;8.538;2023-11-19T12:58:32;96540.19;;;13.29;86.87
73024;BME280;72676;47.526;8.538;2023-11-19T13:01:06;96534.78;;;13.30;87.77
73024;BME280;72676;47.526;8.538;2023-11-19T13:03:34;96544.56;;;13.38;88.03
73024;BME280;72676;47.526;8.538;2023-11-19T13:06:06;96522.47;;;13.48;88.12
73024;BME280;72676;47.526;8.538;2023-11-19T13:08:50;96529.16;;;13.60;86.54
73024;BME280;72676;47.526;8.538;2023-11-19T13:11:32;96536.31;;;13.68;85.99
73024;BME280;72676;47.526;8.538;2023-11-19T13:14:03;96531.13;;;13.76;85.32
73024;BME280;72676;47.526;8.538;2023-11-19T13:16:38;96519.59;;;13.94;85.30
73024;BME280;72676;47.526;8.538;2023-11-19T13:19:09;96524.66;;;13.88;85.08
73024;BME280;72676;47.526;8.538;2023-11-19T13:21:36;96521.84;;;14.07;85.25
73024;BME280;72676;47.526;8.538;2023-11-19T13:24:04;96519.03;;;14.08;84.65